createdAt,value
2019-01-17T00:01:00.770Z,3.42
2019-01-17T00:02:08.987Z,2.40
2019-01-17T00:03:29.874Z,2.60
2019-01-17T00:04:43.916Z,2.85
2019-01-17T00:05:54.480Z,2.60
2019-01-17T00:06:59.540Z,2.60
2019-01-17T00:08:07.387Z,2.70
2019-01-17T00:09:24.241Z,2.65
2019-01-17T00:10:34.913Z,2.62
2019-01-17T00:11:40.052Z,2.65
2019-01-17T00:12:45.133Z,2.62
2019-01-17T00:14:04.892Z,2.83
2019-01-17T00:15:16.268Z,2.80
2019-01-17T00:16:24.050Z,2.40
2019-01-17T00:17:29.187Z,3.60
2019-01-17T00:18:43.135Z,2.70
2019-01-17T00:20:03.385Z,2.80
2019-01-17T00:21:23.257Z,2.90
2019-01-17T00:22:31.041Z,3.00
2019-01-17T00:23:39.061Z,2.80
2019-01-17T00:24:44.188Z,2.98
2019-01-17T00:26:07.085Z,2.75
2019-01-17T00:27:28.346Z,2.30
2019-01-17T00:28:33.406Z,2.75
2019-01-17T00:29:47.342Z,2.72
2019-01-17T00:30:55.468Z,2.37
2019-01-17T00:32:09.763Z,2.37
2019-01-17T00:33:29.801Z,2.85
2019-01-17T00:34:43.875Z,2.72
2019-01-17T00:36:00.569Z,2.47
2019-01-17T00:37:08.993Z,2.52
2019-01-17T00:38:14.210Z,2.55
2019-01-17T00:39:37.015Z,3.12
2019-01-17T00:40:48.208Z,2.40
2019-01-17T00:41:56.111Z,2.40
2019-01-17T00:43:18.547Z,3.00
2019-01-17T00:44:35.509Z,3.20
2019-01-17T00:45:40.635Z,2.70
2019-01-17T00:47:01.494Z,3.05
2019-01-17T00:48:09.281Z,2.75
2019-01-17T00:49:20.059Z,2.65
2019-01-17T00:50:27.984Z,2.37
2019-01-17T00:51:36.030Z,2.60
2019-01-17T00:52:59.142Z,2.45
2019-01-17T00:54:22.253Z,2.17
2019-01-17T00:55:43.346Z,2.55
2019-01-17T00:57:02.999Z,2.50
2019-01-17T00:58:10.746Z,2.83
2019-01-17T00:59:32.060Z,2.45
2019-01-17T01:00:53.249Z,2.85
2019-01-17T01:02:01.018Z,2.47
2019-01-17T01:03:18.135Z,2.70
2019-01-17T01:04:29.158Z,2.45
2019-01-17T01:05:40.218Z,2.60
2019-01-17T01:06:45.368Z,2.65
2019-01-17T01:08:06.608Z,2.52
2019-01-17T01:09:26.875Z,2.37
2019-01-17T01:10:31.945Z,2.62
2019-01-17T01:11:45.774Z,2.40
2019-01-17T01:12:53.488Z,2.60
2019-01-17T01:14:14.700Z,2.90
2019-01-17T01:15:35.464Z,3.05
2019-01-17T01:16:59.670Z,2.80
2019-01-17T01:18:07.582Z,2.20
2019-01-17T01:19:15.267Z,2.42
2019-01-17T01:20:22.897Z,2.70
2019-01-17T01:21:28.044Z,2.55
2019-01-17T01:22:35.975Z,2.70
2019-01-17T01:23:55.835Z,2.77
2019-01-17T01:25:20.038Z,2.72
2019-01-17T01:26:25.164Z,2.40
2019-01-17T01:27:30.281Z,2.65
2019-01-17T01:28:38.008Z,2.87
2019-01-17T01:29:55.048Z,2.65
2019-01-17T01:31:02.960Z,2.37
2019-01-17T01:32:08.090Z,2.60
2019-01-17T01:33:29.212Z,2.42
2019-01-17T01:34:49.423Z,2.33
2019-01-17T01:35:57.291Z,1.82
2019-01-17T01:37:10.910Z,2.60
2019-01-17T01:38:21.689Z,2.35
2019-01-17T01:39:29.775Z,2.77
2019-01-17T01:40:37.561Z,2.52
2019-01-17T01:41:45.755Z,2.75
2019-01-17T01:42:53.704Z,2.70
2019-01-17T01:43:58.785Z,2.70
2019-01-17T01:45:09.856Z,3.33
2019-01-17T01:46:17.365Z,2.37
2019-01-17T01:47:22.504Z,2.40
2019-01-17T01:48:30.580Z,2.62
2019-01-17T01:49:35.671Z,2.45
2019-01-17T01:50:43.444Z,2.75
2019-01-17T01:52:03.612Z,1.95
2019-01-17T01:53:07.193Z,2.55
2019-01-17T01:54:10.809Z,2.10
2019-01-17T01:55:14.328Z,3.00
2019-01-17T01:56:17.745Z,2.30
2019-01-17T01:57:21.189Z,2.35
2019-01-17T01:58:24.631Z,2.47
2019-01-17T01:59:28.094Z,2.35
2019-01-17T02:00:31.551Z,2.30
2019-01-17T02:01:35.232Z,2.98
2019-01-17T02:02:38.739Z,2.65
2019-01-17T02:03:42.238Z,2.30
2019-01-17T02:04:45.721Z,2.35
2019-01-17T02:05:49.159Z,2.17
2019-01-17T02:06:52.687Z,2.35
2019-01-17T02:07:56.254Z,2.27
2019-01-17T02:08:59.829Z,2.55
2019-01-17T02:10:04.405Z,2.15
2019-01-17T02:11:07.910Z,1.90
2019-01-17T02:12:11.483Z,2.50
2019-01-17T02:13:15.061Z,2.25
2019-01-17T02:14:19.429Z,2.30
2019-01-17T02:15:23.024Z,2.83
2019-01-17T02:16:26.468Z,2.60
2019-01-17T02:17:29.974Z,2.62
2019-01-17T02:18:33.487Z,2.95
2019-01-17T02:19:36.905Z,2.33
2019-01-17T02:20:41.003Z,2.75
2019-01-17T02:21:44.516Z,2.80
2019-01-17T02:22:48.055Z,2.80
2019-01-17T02:23:51.571Z,3.08
2019-01-17T02:24:55.015Z,2.40
2019-01-17T02:25:58.530Z,2.65
2019-01-17T02:27:02.034Z,2.87
2019-01-17T02:28:05.639Z,2.75
2019-01-17T02:29:09.056Z,2.40
2019-01-17T02:30:12.957Z,2.87
2019-01-17T02:31:16.470Z,2.60
2019-01-17T02:32:20.051Z,2.95
2019-01-17T02:33:23.495Z,2.95
2019-01-17T02:34:26.927Z,2.90
2019-01-17T02:35:30.477Z,2.50
2019-01-17T02:36:33.976Z,2.00
2019-01-17T02:37:37.506Z,2.90
2019-01-17T02:38:40.930Z,2.62
2019-01-17T02:39:44.378Z,1.90
2019-01-17T02:40:47.826Z,2.47
2019-01-17T02:41:51.331Z,2.75
2019-01-17T02:42:54.750Z,2.80
2019-01-17T02:43:58.268Z,2.80
2019-01-17T02:45:01.713Z,2.42
2019-01-17T02:46:05.502Z,2.40
2019-01-17T02:47:09.338Z,2.83
2019-01-17T02:48:12.824Z,2.55
2019-01-17T02:49:16.314Z,2.90
2019-01-17T02:50:19.748Z,2.27
2019-01-17T02:51:23.189Z,2.47
2019-01-17T02:52:26.617Z,2.83
2019-01-17T02:53:30.098Z,2.72
2019-01-17T02:54:35.795Z,2.67
2019-01-17T02:55:38.746Z,2.50
2019-01-17T02:56:42.216Z,2.50
2019-01-17T02:57:45.641Z,2.75
2019-01-17T02:58:49.138Z,2.25
2019-01-17T02:59:52.562Z,2.40
2019-01-17T03:00:56.012Z,2.10
2019-01-17T03:01:59.451Z,2.37
2019-01-17T03:03:02.869Z,2.40
2019-01-17T03:04:06.445Z,2.47
2019-01-17T03:05:10.017Z,2.08
2019-01-17T03:06:13.597Z,2.20
2019-01-17T03:07:17.113Z,2.00
2019-01-17T03:08:20.607Z,2.02
2019-01-17T03:09:24.097Z,2.20
2019-01-17T03:10:27.660Z,2.62
2019-01-17T03:11:31.169Z,2.40
2019-01-17T03:12:34.591Z,1.80
2019-01-17T03:13:38.092Z,2.20
2019-01-17T03:14:41.668Z,2.40
2019-01-17T03:15:45.152Z,2.37
2019-01-17T03:16:48.757Z,2.37
2019-01-17T03:17:52.239Z,2.20
2019-01-17T03:18:55.729Z,1.90
2019-01-17T03:19:59.220Z,2.33
2019-01-17T03:21:02.785Z,2.50
2019-01-17T03:22:06.228Z,2.20
2019-01-17T03:23:09.800Z,2.52
2019-01-17T03:24:13.243Z,2.10
2019-01-17T03:25:16.818Z,2.27
2019-01-17T03:26:20.268Z,2.37
2019-01-17T03:27:23.758Z,2.47
2019-01-17T03:28:27.263Z,2.00
2019-01-17T03:29:30.684Z,2.10
2019-01-17T03:30:34.246Z,2.30
2019-01-17T03:31:37.689Z,2.25
2019-01-17T03:32:41.257Z,2.08
2019-01-17T03:33:44.687Z,2.70
2019-01-17T03:34:48.109Z,2.40
2019-01-17T03:35:51.762Z,3.05
2019-01-17T03:36:55.208Z,2.70
2019-01-17T03:37:58.647Z,3.00
2019-01-17T03:39:02.146Z,2.60
2019-01-17T03:40:12.095Z,2.62
2019-01-17T03:41:15.604Z,2.92
2019-01-17T03:42:19.178Z,2.85
2019-01-17T03:43:22.674Z,2.45
2019-01-17T03:44:26.187Z,3.20
2019-01-17T03:45:29.598Z,3.02
2019-01-17T03:46:33.124Z,3.17
2019-01-17T03:47:36.570Z,3.30
2019-01-17T03:48:40.046Z,3.72
2019-01-17T03:49:43.491Z,3.22
2019-01-17T03:50:46.917Z,3.67
2019-01-17T03:51:50.366Z,3.12
2019-01-17T03:52:53.942Z,3.60
2019-01-17T03:53:57.435Z,3.65
2019-01-17T03:55:00.857Z,3.47
2019-01-17T03:56:04.421Z,3.80
2019-01-17T03:57:07.863Z,3.65
2019-01-17T03:58:11.399Z,4.47
2019-01-17T03:59:14.885Z,3.52
2019-01-17T04:00:19.551Z,4.05
2019-01-17T04:01:23.055Z,4.20
2019-01-17T04:02:26.641Z,4.10
2019-01-17T04:03:30.089Z,4.90
2019-01-17T04:04:33.535Z,3.15
2019-01-17T04:05:37.081Z,4.03
2019-01-17T04:06:40.572Z,4.40
2019-01-17T04:07:44.089Z,4.42
2019-01-17T04:08:47.549Z,4.65
2019-01-17T04:09:50.973Z,4.10
2019-01-17T04:10:54.376Z,3.98
2019-01-17T04:11:57.801Z,4.30
2019-01-17T04:13:01.265Z,4.30
2019-01-17T04:14:05.031Z,4.70
2019-01-17T04:15:10.492Z,4.97
2019-01-17T04:16:14.055Z,4.65
2019-01-17T04:17:17.564Z,4.75
2019-01-17T04:18:21.072Z,5.40
2019-01-17T04:19:24.626Z,4.85
2019-01-17T04:20:28.184Z,4.22
2019-01-17T04:21:31.674Z,4.60
2019-01-17T04:22:35.176Z,3.80
2019-01-17T04:23:38.640Z,4.42
2019-01-17T04:24:42.201Z,4.05
2019-01-17T04:25:45.692Z,3.77
2019-01-17T04:26:49.114Z,3.95
2019-01-17T04:27:52.537Z,3.70
2019-01-17T04:28:56.154Z,4.22
2019-01-17T04:29:59.581Z,4.03
2019-01-17T04:31:03.014Z,4.10
2019-01-17T04:32:06.571Z,3.87
2019-01-17T04:33:10.071Z,4.28
2019-01-17T04:34:13.516Z,4.20
2019-01-17T04:35:17.100Z,4.65
2019-01-17T04:36:20.523Z,3.77
2019-01-17T04:37:24.023Z,4.10
2019-01-17T04:38:27.464Z,4.28
2019-01-17T04:39:30.898Z,4.45
2019-01-17T04:40:34.324Z,4.12
2019-01-17T04:41:37.752Z,4.80
2019-01-17T04:42:41.321Z,4.40
2019-01-17T04:43:44.758Z,4.83
2019-01-17T04:44:48.184Z,3.87
2019-01-17T04:45:51.742Z,4.72
2019-01-17T04:46:55.169Z,4.70
2019-01-17T04:47:58.612Z,4.53
2019-01-17T04:49:02.061Z,4.08
2019-01-17T04:50:08.630Z,3.37
2019-01-17T04:51:12.131Z,5.30
2019-01-17T04:52:15.565Z,4.12
2019-01-17T04:53:19.073Z,3.50
2019-01-17T04:54:22.580Z,4.12
2019-01-17T04:55:26.086Z,4.22
2019-01-17T04:56:29.522Z,4.50
2019-01-17T04:57:32.955Z,4.47
2019-01-17T04:58:36.397Z,4.30
2019-01-17T04:59:39.851Z,4.58
2019-01-17T05:00:43.277Z,4.50
2019-01-17T05:01:46.769Z,4.03
2019-01-17T05:02:50.299Z,4.78
2019-01-17T05:03:54.020Z,4.35
2019-01-17T05:04:57.996Z,4.72
2019-01-17T05:06:01.418Z,3.70
2019-01-17T05:07:04.972Z,3.58
2019-01-17T05:08:10.358Z,4.47
2019-01-17T05:09:13.714Z,4.40
2019-01-17T05:10:17.612Z,4.22
2019-01-17T05:11:21.108Z,4.40
2019-01-17T05:12:24.544Z,4.20
2019-01-17T05:13:28.057Z,4.10
2019-01-17T05:14:31.493Z,3.85
2019-01-17T05:15:34.922Z,4.67
2019-01-17T05:16:38.344Z,4.50
2019-01-17T05:17:41.859Z,4.55
2019-01-17T05:18:45.310Z,4.28
2019-01-17T05:19:48.755Z,4.08
2019-01-17T05:20:52.185Z,4.08
2019-01-17T05:21:55.691Z,3.95
2019-01-17T05:22:59.194Z,3.90
2019-01-17T05:24:02.911Z,3.98
2019-01-17T05:25:12.366Z,4.00
2019-01-17T05:26:13.224Z,4.85
2019-01-17T05:27:16.647Z,3.92
2019-01-17T05:28:20.156Z,3.52
2019-01-17T05:29:23.653Z,3.87
2019-01-17T05:30:27.137Z,3.45
2019-01-17T05:31:30.568Z,3.67
2019-01-17T05:32:36.802Z,4.65
2019-01-17T05:33:39.371Z,3.87
2019-01-17T05:34:42.864Z,4.45
2019-01-17T05:35:46.296Z,3.70
2019-01-17T05:36:49.860Z,4.22
2019-01-17T05:37:53.327Z,5.03
2019-01-17T05:38:56.755Z,4.53
2019-01-17T05:40:00.259Z,3.85
2019-01-17T05:41:03.796Z,4.45
2019-01-17T05:42:07.282Z,4.20
2019-01-17T05:43:10.729Z,4.15
2019-01-17T05:44:14.240Z,4.17
2019-01-17T05:45:17.820Z,4.53
2019-01-17T05:46:21.264Z,4.78
2019-01-17T05:47:24.824Z,4.33
2019-01-17T05:48:28.349Z,5.37
2019-01-17T05:49:31.773Z,4.80
2019-01-17T05:50:35.276Z,4.40
2019-01-17T05:51:38.705Z,4.20
2019-01-17T05:52:42.271Z,4.55
2019-01-17T05:53:45.742Z,4.83
2019-01-17T05:54:49.166Z,3.65
2019-01-17T05:55:52.728Z,3.98
2019-01-17T05:56:56.168Z,4.95
2019-01-17T05:57:59.619Z,4.30
2019-01-17T05:59:03.059Z,4.30
2019-01-17T06:00:15.271Z,5.28
2019-01-17T06:01:18.801Z,4.20
2019-01-17T06:02:22.281Z,4.22
2019-01-17T06:03:25.724Z,4.70
2019-01-17T06:04:29.176Z,4.42
2019-01-17T06:05:32.665Z,3.95
2019-01-17T06:06:36.083Z,4.50
2019-01-17T06:07:39.651Z,5.50
2019-01-17T06:08:43.094Z,4.62
2019-01-17T06:09:46.607Z,4.25
2019-01-17T06:10:50.098Z,3.85
2019-01-17T06:11:53.551Z,4.47
2019-01-17T06:12:57.174Z,4.40
2019-01-17T06:14:00.604Z,3.83
2019-01-17T06:15:05.216Z,4.30
2019-01-17T06:16:08.886Z,4.20
2019-01-17T06:17:12.317Z,4.05
2019-01-17T06:18:15.810Z,3.98
2019-01-17T06:19:19.258Z,3.83
2019-01-17T06:20:22.805Z,3.92
2019-01-17T06:21:26.372Z,4.20
2019-01-17T06:22:29.904Z,3.75
2019-01-17T06:23:33.465Z,4.83
2019-01-17T06:24:36.984Z,4.30
2019-01-17T06:25:40.556Z,4.42
2019-01-17T06:26:43.982Z,4.67
2019-01-17T06:27:47.484Z,4.87
2019-01-17T06:28:50.944Z,4.17
2019-01-17T06:29:54.403Z,3.87
2019-01-17T06:30:57.829Z,3.98
2019-01-17T06:32:01.319Z,4.67
2019-01-17T06:33:05.084Z,4.75
2019-01-17T06:34:08.685Z,3.67
2019-01-17T06:35:12.462Z,5.40
2019-01-17T06:36:15.962Z,4.70
2019-01-17T06:37:19.466Z,4.28
2019-01-17T06:38:23.032Z,4.83
2019-01-17T06:39:26.471Z,4.17
2019-01-17T06:40:30.446Z,3.83
2019-01-17T06:41:33.956Z,4.35
2019-01-17T06:42:37.448Z,4.35
2019-01-17T06:43:41.079Z,3.87
2019-01-17T06:44:44.527Z,4.92
2019-01-17T06:45:47.950Z,5.15
2019-01-17T06:46:51.375Z,4.50
2019-01-17T06:47:54.804Z,4.25
2019-01-17T06:48:58.362Z,4.10
2019-01-17T06:50:01.818Z,4.37
2019-01-17T06:51:05.391Z,3.87
2019-01-17T06:52:08.872Z,4.92
2019-01-17T06:53:12.314Z,4.67
2019-01-17T06:54:15.748Z,4.72
2019-01-17T06:55:19.217Z,5.08
2019-01-17T06:56:22.657Z,4.45
2019-01-17T06:57:26.085Z,5.05
2019-01-17T06:58:29.513Z,4.62
2019-01-17T06:59:32.935Z,4.62
2019-01-17T07:00:36.383Z,4.03
2019-01-17T07:01:39.804Z,4.45
2019-01-17T07:02:43.649Z,4.85
2019-01-17T07:03:47.142Z,4.30
2019-01-17T07:04:50.585Z,5.20
2019-01-17T07:05:54.397Z,4.30
2019-01-17T07:06:57.897Z,4.58
2019-01-17T07:08:01.660Z,4.35
2019-01-17T07:09:07.791Z,4.25
2019-01-17T07:10:16.448Z,4.30
2019-01-17T07:11:19.967Z,4.80
2019-01-17T07:12:23.565Z,4.60
2019-01-17T07:13:27.665Z,4.97
2019-01-17T07:14:31.197Z,4.70
2019-01-17T07:15:34.926Z,4.65
2019-01-17T07:16:38.606Z,4.40
2019-01-17T07:17:42.382Z,4.60
2019-01-17T07:18:46.597Z,4.92
2019-01-17T07:19:50.273Z,5.37
2019-01-17T07:20:53.737Z,5.00
2019-01-17T07:21:57.183Z,5.30
2019-01-17T07:23:00.604Z,4.97
2019-01-17T07:24:04.272Z,5.00
2019-01-17T07:25:09.536Z,5.75
2019-01-17T07:26:13.051Z,5.22
2019-01-17T07:27:16.550Z,4.58
2019-01-17T07:28:19.991Z,5.00
2019-01-17T07:29:23.507Z,5.20
2019-01-17T07:30:27.018Z,5.00
2019-01-17T07:31:30.528Z,4.95
2019-01-17T07:32:34.129Z,4.72
2019-01-17T07:33:37.568Z,5.12
2019-01-17T07:34:41.006Z,4.25
2019-01-17T07:35:44.598Z,4.90
2019-01-17T07:36:48.333Z,4.40
2019-01-17T07:37:52.010Z,4.22
2019-01-17T07:38:55.479Z,4.80
2019-01-17T07:39:58.958Z,4.35
2019-01-17T07:41:02.502Z,4.37
2019-01-17T07:42:06.314Z,4.83
2019-01-17T07:43:10.030Z,3.83
2019-01-17T07:44:13.555Z,4.50
2019-01-17T07:45:20.116Z,4.50
2019-01-17T07:46:23.689Z,5.78
2019-01-17T07:47:27.490Z,4.62
2019-01-17T07:48:30.997Z,5.00
2019-01-17T07:49:35.443Z,4.67
2019-01-17T07:50:39.115Z,4.20
2019-01-17T07:51:42.604Z,4.25
2019-01-17T07:52:46.289Z,4.62
2019-01-17T07:53:49.725Z,6.17
2019-01-17T07:54:53.469Z,5.40
2019-01-17T07:56:00.422Z,4.58
2019-01-17T07:57:03.967Z,3.62
2019-01-17T07:58:07.496Z,4.00
2019-01-17T07:59:11.293Z,4.12
2019-01-17T08:00:20.654Z,4.17
2019-01-17T08:01:27.592Z,4.67
2019-01-17T08:02:31.160Z,4.28
2019-01-17T08:03:35.960Z,3.92
2019-01-17T08:04:40.858Z,3.77
2019-01-17T08:05:45.256Z,4.30
2019-01-17T08:06:48.790Z,3.95
2019-01-17T08:07:52.393Z,4.12
2019-01-17T08:08:59.115Z,3.62
2019-01-17T08:10:03.196Z,3.90
2019-01-17T08:11:06.956Z,3.62
2019-01-17T08:12:10.568Z,3.95
2019-01-17T08:13:14.671Z,4.37
2019-01-17T08:14:19.094Z,4.30
2019-01-17T08:15:23.064Z,4.30
2019-01-17T08:16:26.973Z,4.08
2019-01-17T08:17:32.160Z,4.80
2019-01-17T08:18:36.612Z,4.20
2019-01-17T08:19:40.915Z,3.60
2019-01-17T08:20:45.114Z,3.65
2019-01-17T08:21:48.599Z,3.75
2019-01-17T08:22:52.536Z,4.05
2019-01-17T08:23:56.480Z,4.00
2019-01-17T08:25:00.378Z,3.62
2019-01-17T08:26:04.474Z,4.80
2019-01-17T08:27:08.771Z,6.40
2019-01-17T08:28:12.646Z,6.08
2019-01-17T08:29:19.363Z,7.25
2019-01-17T08:30:25.479Z,6.85
2019-01-17T08:31:29.632Z,5.58
2019-01-17T08:32:33.836Z,6.30
2019-01-17T08:33:37.967Z,5.25
2019-01-17T08:34:42.972Z,6.35
2019-01-17T08:35:47.259Z,5.80
2019-01-17T08:36:54.203Z,4.97
2019-01-17T08:37:57.701Z,5.40
2019-01-17T08:39:02.072Z,5.95
2019-01-17T08:40:08.565Z,7.30
2019-01-17T08:41:12.115Z,6.55
2019-01-17T08:42:15.651Z,5.40
2019-01-17T08:43:19.282Z,6.28
2019-01-17T08:44:22.799Z,5.72
2019-01-17T08:45:26.451Z,5.33
2019-01-17T08:46:29.978Z,5.22
2019-01-17T08:47:33.388Z,4.00
2019-01-17T08:48:36.910Z,3.37
2019-01-17T08:49:40.401Z,3.52
2019-01-17T08:50:44.256Z,3.60
2019-01-17T08:51:47.787Z,3.00
2019-01-17T08:52:51.344Z,3.15
2019-01-17T08:53:56.590Z,3.27
2019-01-17T08:55:00.217Z,3.08
2019-01-17T08:56:04.024Z,3.33
2019-01-17T08:57:07.834Z,3.10
2019-01-17T08:58:11.647Z,3.20
2019-01-17T08:59:15.425Z,3.05
2019-01-17T09:00:21.967Z,3.67
2019-01-17T09:01:25.485Z,3.10
2019-01-17T09:02:28.991Z,2.92
2019-01-17T09:03:32.416Z,2.80
2019-01-17T09:04:36.006Z,3.12
2019-01-17T09:05:39.513Z,2.35
2019-01-17T09:06:42.934Z,2.05
2019-01-17T09:07:46.510Z,3.10
2019-01-17T09:08:49.932Z,2.17
2019-01-17T09:09:53.437Z,2.62
2019-01-17T09:10:56.870Z,2.92
2019-01-17T09:12:00.315Z,3.30
2019-01-17T09:13:03.983Z,2.98
2019-01-17T09:14:07.400Z,2.40
2019-01-17T09:15:13.651Z,2.50
2019-01-17T09:16:17.071Z,3.25
2019-01-17T09:17:20.589Z,2.65
2019-01-17T09:18:24.091Z,6.40
2019-01-17T09:19:27.607Z,6.33
2019-01-17T09:20:31.075Z,9.45
2019-01-17T09:21:34.522Z,7.28
2019-01-17T09:22:38.103Z,3.85
2019-01-17T09:23:41.547Z,13.80
2019-01-17T09:24:44.985Z,26.82
2019-01-17T09:25:48.413Z,2.65
2019-01-17T09:26:51.864Z,2.55
2019-01-17T09:27:55.473Z,2.50
2019-01-17T09:28:58.915Z,2.30
2019-01-17T09:30:02.407Z,2.35
2019-01-17T09:31:05.900Z,2.35
2019-01-17T09:32:09.401Z,3.00
2019-01-17T09:33:12.962Z,2.30
2019-01-17T09:34:16.380Z,3.02
2019-01-17T09:35:20.054Z,1.90
2019-01-17T09:36:23.646Z,2.45
2019-01-17T09:37:27.084Z,2.05
2019-01-17T09:38:30.577Z,2.25
2019-01-17T09:39:34.080Z,1.92
2019-01-17T09:40:37.510Z,2.22
2019-01-17T09:41:41.000Z,2.45
2019-01-17T09:42:44.516Z,2.30
2019-01-17T09:43:47.960Z,2.45
2019-01-17T09:44:51.383Z,2.30
2019-01-17T09:45:54.885Z,2.50
2019-01-17T09:46:58.376Z,3.20
2019-01-17T09:48:02.120Z,3.42
2019-01-17T09:49:05.568Z,3.20
2019-01-17T09:50:17.469Z,2.55
2019-01-17T09:51:20.895Z,2.45
2019-01-17T09:52:24.384Z,2.30
2019-01-17T09:53:27.904Z,2.40
2019-01-17T09:54:31.400Z,2.02
2019-01-17T09:55:34.859Z,1.95
2019-01-17T09:56:38.359Z,2.55
2019-01-17T09:57:41.868Z,2.15
2019-01-17T09:58:45.439Z,2.70
2019-01-17T09:59:49.112Z,2.60
2019-01-17T10:00:52.677Z,2.80
2019-01-17T10:01:56.093Z,2.72
2019-01-17T10:02:59.683Z,2.60
2019-01-17T10:04:03.114Z,2.90
2019-01-17T10:05:07.477Z,2.37
2019-01-17T10:06:10.983Z,3.17
2019-01-17T10:07:14.406Z,3.30
2019-01-17T10:08:17.857Z,2.70
2019-01-17T10:09:21.303Z,2.92
2019-01-17T10:10:25.865Z,3.17
2019-01-17T10:11:29.285Z,2.58
2019-01-17T10:12:32.789Z,1.82
2019-01-17T10:13:36.224Z,2.05
2019-01-17T10:14:39.712Z,2.22
2019-01-17T10:15:48.844Z,1.75
2019-01-17T10:16:53.612Z,1.77
2019-01-17T10:18:23.827Z,2.37
2019-01-17T10:19:51.389Z,2.10
2019-01-17T10:21:15.788Z,2.30
2019-01-17T10:22:25.146Z,1.70
2019-01-17T10:23:49.426Z,1.50
2019-01-17T10:25:07.438Z,1.60
2019-01-17T10:26:21.103Z,1.90
2019-01-17T10:27:27.778Z,1.85
2019-01-17T10:28:56.405Z,3.02
2019-01-17T10:30:20.670Z,5.83
2019-01-17T10:31:39.016Z,4.33
2019-01-17T10:32:51.343Z,4.35
2019-01-17T10:34:00.781Z,2.65
2019-01-17T10:35:18.375Z,2.20
2019-01-17T10:36:33.209Z,1.35
2019-01-17T10:37:39.688Z,2.10
2019-01-17T10:38:49.062Z,1.50
2019-01-17T10:39:55.591Z,1.92
2019-01-17T10:41:13.882Z,2.42
2019-01-17T10:42:38.438Z,1.85
2019-01-17T10:43:51.008Z,2.72
2019-01-17T10:45:00.248Z,2.30
2019-01-17T10:46:27.653Z,3.05
2019-01-17T10:47:51.654Z,2.10
2019-01-17T10:48:58.160Z,1.90
2019-01-17T10:50:22.360Z,2.25
2019-01-17T10:51:31.549Z,1.85
2019-01-17T10:52:40.589Z,2.40
2019-01-17T10:53:49.688Z,2.47
2019-01-17T10:55:23.260Z,2.20
2019-01-17T10:56:51.678Z,2.20
2019-01-17T10:58:15.963Z,2.25
2019-01-17T10:59:25.358Z,2.75
2019-01-17T11:00:40.658Z,2.47
2019-01-17T11:01:50.150Z,2.47
2019-01-17T11:03:02.455Z,2.60
2019-01-17T11:04:17.779Z,1.98
2019-01-17T11:05:24.331Z,1.92
2019-01-17T11:06:48.769Z,2.67
2019-01-17T11:08:04.270Z,1.77
2019-01-17T11:09:16.676Z,1.90
2019-01-17T11:10:45.712Z,2.70
2019-01-17T11:12:17.771Z,2.05
2019-01-17T11:13:30.224Z,2.47
2019-01-17T11:14:45.676Z,2.20
2019-01-17T11:16:06.790Z,2.37
2019-01-17T11:17:18.746Z,2.65
2019-01-17T11:18:25.301Z,2.80
2019-01-17T11:19:31.782Z,2.50
2019-01-17T11:20:50.312Z,2.30
2019-01-17T11:21:59.788Z,2.25
2019-01-17T11:23:14.860Z,2.08
2019-01-17T11:24:40.953Z,2.17
2019-01-17T11:25:53.417Z,2.45
2019-01-17T11:27:16.438Z,2.52
2019-01-17T11:28:34.820Z,2.72
2019-01-17T11:29:47.225Z,2.60
2019-01-17T11:30:56.201Z,3.02
2019-01-17T11:32:26.047Z,2.55
2019-01-17T11:33:41.458Z,2.45
2019-01-17T11:34:50.816Z,2.75
2019-01-17T11:36:09.109Z,2.05
2019-01-17T11:37:48.473Z,3.10
2019-01-17T11:39:17.455Z,2.87
2019-01-17T11:40:35.739Z,2.70
2019-01-17T11:41:42.232Z,2.52
2019-01-17T11:43:00.845Z,2.87
2019-01-17T11:44:10.111Z,2.98
2019-01-17T11:45:16.614Z,2.80
2019-01-17T11:46:31.986Z,2.90
2019-01-17T11:47:47.376Z,2.60
2019-01-17T11:49:02.564Z,1.85
2019-01-17T11:50:15.085Z,2.42
2019-01-17T11:51:29.765Z,2.65
2019-01-17T11:52:52.261Z,3.05
2019-01-17T11:54:04.518Z,2.70
2019-01-17T11:55:33.395Z,2.47
2019-01-17T11:56:42.463Z,2.08
2019-01-17T11:57:49.022Z,2.62
2019-01-17T11:59:01.343Z,2.80
2019-01-17T12:00:36.158Z,2.77
2019-01-17T12:02:09.566Z,3.37
2019-01-17T12:03:21.839Z,2.20
2019-01-17T12:04:34.526Z,2.58
2019-01-17T12:05:37.980Z,2.50
2019-01-17T12:06:41.523Z,2.77
2019-01-17T12:07:46.178Z,3.12
2019-01-17T12:08:49.716Z,2.70
2019-01-17T12:09:53.215Z,2.80
2019-01-17T12:10:56.704Z,3.55
2019-01-17T12:12:00.232Z,3.20
2019-01-17T12:13:03.822Z,3.10
2019-01-17T12:14:07.392Z,2.70
2019-01-17T12:15:11.032Z,3.30
2019-01-17T12:16:14.532Z,2.75
2019-01-17T12:17:18.223Z,2.80
2019-01-17T12:18:21.716Z,2.75
2019-01-17T12:19:25.254Z,3.08
2019-01-17T12:20:28.652Z,3.10
2019-01-17T12:21:32.732Z,2.50
2019-01-17T12:22:36.266Z,3.00
2019-01-17T12:23:39.693Z,3.83
2019-01-17T12:24:43.203Z,2.95
2019-01-17T12:25:46.647Z,3.27
2019-01-17T12:26:50.191Z,2.83
2019-01-17T12:27:53.585Z,2.55
2019-01-17T12:28:57.140Z,2.95
2019-01-17T12:30:00.740Z,2.98
2019-01-17T12:31:04.164Z,3.30
2019-01-17T12:32:07.681Z,2.90
2019-01-17T12:33:11.178Z,3.30
2019-01-17T12:34:14.621Z,2.77
2019-01-17T12:35:18.096Z,2.85
2019-01-17T12:36:21.640Z,3.00
2019-01-17T12:37:25.370Z,2.85
2019-01-17T12:38:28.725Z,3.05
2019-01-17T12:39:32.148Z,2.92
2019-01-17T12:40:35.684Z,2.70
2019-01-17T12:41:39.546Z,2.83
2019-01-17T12:42:43.113Z,2.90
2019-01-17T12:43:46.539Z,3.10
2019-01-17T12:44:50.040Z,3.15
2019-01-17T12:45:53.531Z,2.45
2019-01-17T12:46:57.114Z,3.15
2019-01-17T12:48:00.557Z,3.40
2019-01-17T12:49:04.253Z,3.00
2019-01-17T12:50:10.733Z,2.92
2019-01-17T12:51:14.243Z,2.80
2019-01-17T12:52:17.847Z,3.17
2019-01-17T12:53:21.300Z,3.17
2019-01-17T12:54:24.796Z,3.33
2019-01-17T12:55:28.346Z,3.35
2019-01-17T12:56:31.834Z,3.50
2019-01-17T12:57:35.353Z,3.15
2019-01-17T12:58:38.829Z,3.87
2019-01-17T12:59:42.321Z,3.55
2019-01-17T13:00:45.751Z,3.77
2019-01-17T13:01:49.309Z,3.70
2019-01-17T13:02:52.831Z,3.33
2019-01-17T13:03:56.430Z,3.70
2019-01-17T13:04:59.991Z,3.47
2019-01-17T13:06:03.478Z,3.35
2019-01-17T13:07:06.986Z,3.37
2019-01-17T13:08:10.449Z,3.42
2019-01-17T13:09:13.867Z,3.25
2019-01-17T13:10:18.687Z,3.50
2019-01-17T13:11:22.152Z,3.45
2019-01-17T13:12:25.804Z,3.72
2019-01-17T13:13:29.251Z,4.20
2019-01-17T13:14:32.822Z,3.70
2019-01-17T13:15:36.323Z,4.35
2019-01-17T13:16:39.851Z,3.50
2019-01-17T13:17:43.441Z,3.40
2019-01-17T13:18:46.897Z,3.05
2019-01-17T13:19:50.323Z,3.40
2019-01-17T13:20:53.856Z,4.00
2019-01-17T13:21:57.453Z,2.55
2019-01-17T13:23:01.051Z,3.02
2019-01-17T13:24:04.921Z,3.20
2019-01-17T13:25:17.361Z,2.77
2019-01-17T13:26:20.886Z,3.40
2019-01-17T13:27:24.514Z,2.52
2019-01-17T13:28:27.962Z,3.05
2019-01-17T13:29:31.557Z,2.90
2019-01-17T13:30:35.040Z,2.98
2019-01-17T13:31:38.533Z,3.20
2019-01-17T13:32:42.035Z,3.52
2019-01-17T13:33:45.658Z,2.80
2019-01-17T13:34:49.090Z,2.40
2019-01-17T13:35:52.579Z,3.27
2019-01-17T13:36:56.006Z,2.72
2019-01-17T13:37:59.433Z,3.10
2019-01-17T13:39:02.947Z,2.62
2019-01-17T13:40:11.926Z,3.30
2019-01-17T13:41:15.508Z,2.42
2019-01-17T13:42:20.949Z,2.65
2019-01-17T13:43:24.310Z,2.75
2019-01-17T13:44:27.766Z,2.60
2019-01-17T13:45:31.273Z,2.27
2019-01-17T13:46:34.732Z,3.05
2019-01-17T13:47:38.228Z,2.85
2019-01-17T13:48:41.727Z,2.85
2019-01-17T13:49:45.322Z,2.75
2019-01-17T13:50:48.753Z,3.15
2019-01-17T13:51:52.190Z,2.67
2019-01-17T13:52:55.684Z,2.65
2019-01-17T13:53:59.242Z,2.40
2019-01-17T13:55:02.756Z,2.42
2019-01-17T13:56:06.335Z,2.75
2019-01-17T13:57:09.835Z,2.45
2019-01-17T13:58:13.265Z,2.70
2019-01-17T13:59:16.697Z,2.80
2019-01-17T14:00:24.819Z,5.95
2019-01-17T14:01:28.229Z,2.55
2019-01-17T14:02:31.734Z,2.60
2019-01-17T14:03:35.155Z,1.95
2019-01-17T14:04:38.655Z,3.22
2019-01-17T14:05:42.231Z,2.42
2019-01-17T14:06:45.821Z,2.37
2019-01-17T14:07:50.478Z,2.55
2019-01-17T14:08:53.920Z,1.95
2019-01-17T14:09:57.418Z,2.00
2019-01-17T14:11:00.859Z,1.90
2019-01-17T14:12:04.434Z,1.95
2019-01-17T14:13:07.932Z,1.60
2019-01-17T14:14:11.450Z,1.40
2019-01-17T14:15:23.834Z,1.52
2019-01-17T14:16:27.356Z,1.60
2019-01-17T14:17:30.784Z,1.65
2019-01-17T14:18:34.400Z,1.47
2019-01-17T14:19:37.862Z,1.80
2019-01-17T14:20:41.378Z,1.70
2019-01-17T14:21:44.886Z,2.50
2019-01-17T14:22:48.470Z,1.70
2019-01-17T14:23:52.076Z,2.35
2019-01-17T14:24:55.507Z,1.10
2019-01-17T14:25:59.027Z,1.32
2019-01-17T14:27:02.527Z,1.70
2019-01-17T14:28:06.032Z,1.20
2019-01-17T14:29:09.658Z,1.32
2019-01-17T14:30:30.431Z,1.45
2019-01-17T14:31:33.867Z,1.35
2019-01-17T14:32:37.362Z,1.10
2019-01-17T14:33:41.031Z,0.90
2019-01-17T14:34:44.457Z,1.32
2019-01-17T14:35:48.001Z,0.90
2019-01-17T14:36:51.414Z,1.40
2019-01-17T14:37:54.836Z,1.10
2019-01-17T14:38:58.261Z,1.22
2019-01-17T14:40:01.751Z,1.25
2019-01-17T14:41:05.279Z,1.20